Time;durP1;ratioP1;P1;durP2;ratioP2;P2;SDS_P1;SDS_P2;PMS_P1;PMS_P2;Temp;Humidity;BMP_temperature;BMP_pressure;BME280_temperature;BME280_humidity;BME280_pressure;Samples;Min_cycle;Max_cycle;Signal;HPM_P1;HPM_P2
2022/06/20 00:01:08;;;;;;;0.20;0.20;;;;;;;;;;1752013;80;26302;-48
2022/06/20 00:03:37;;;;;;;0.40;0.40;;;;;;;;;;1755942;80;26347;-54
2022/06/20 00:06:05;;;;;;;0.40;0.20;;;;;;;;;;1763404;80;26254;-48
2022/06/20 00:08:32;;;;;;;1.30;0.25;;;;;;;;;;1748163;80;26397;-56
2022/06/20 00:11:00;;;;;;;0.40;0.40;;;;;;;;;;1766774;80;26736;-50
2022/06/20 00:13:28;;;;;;;0.30;0.30;;;;;;;;;;1756318;80;26296;-53
2022/06/20 00:15:56;;;;;;;0.30;0.30;;;;;;;;;;1766565;80;26386;-47
2022/06/20 00:18:24;;;;;;;0.30;0.30;;;;;;;;;;1750668;80;26788;-54
2022/06/20 00:20:51;;;;;;;0.88;0.40;;;;;;;;;;1747014;80;26281;-52
2022/06/20 00:23:18;;;;;;;0.20;0.20;;;;;;;;;;1760375;80;26319;-48
2022/06/20 00:25:46;;;;;;;0.50;0.40;;;;;;;;;;1760018;80;26357;-50
2022/06/20 00:28:14;;;;;;;0.30;0.30;;;;;;;;;;1760284;80;26288;-50
2022/06/20 00:30:41;;;;;;;0.20;0.20;;;;;;;;;;1762573;80;26237;-51
2022/06/20 00:33:08;;;;;;;0.23;0.23;;;;;;;;;;1752519;80;26737;-52
2022/06/20 00:35:37;;;;;;;0.20;0.20;;;;;;;;;;1761585;80;26288;-49
2022/06/20 00:38:06;;;;;;;0.35;0.35;;;;;;;;;;1763997;80;26245;-50
2022/06/20 00:40:41;;;;;;;0.25;0.20;;;;;;;;;;1760060;80;26311;-47
2022/06/20 00:43:10;;;;;;;0.30;0.30;;;;;;;;;;1761934;80;26362;-51
2022/06/20 00:45:39;;;;;;;0.80;0.30;;;;;;;;;;1772316;79;26369;-50
2022/06/20 00:48:09;;;;;;;0.65;0.33;;;;;;;;;;1741665;80;26370;-51
2022/06/20 00:50:36;;;;;;;0.30;0.30;;;;;;;;;;1761695;80;26620;-50
2022/06/20 00:53:11;;;;;;;0.20;0.20;;;;;;;;;;1758797;81;26348;-54
2022/06/20 00:55:39;;;;;;;0.30;0.30;;;;;;;;;;1756050;80;26244;-53
2022/06/20 00:58:11;;;;;;;0.30;0.30;;;;;;;;;;1748290;80;26378;-53
2022/06/20 01:00:40;;;;;;;0.20;0.20;;;;;;;;;;1768149;80;26747;-49
2022/06/20 01:03:18;;;;;;;1.45;0.30;;;;;;;;;;1760888;80;26323;-54
2022/06/20 01:05:50;;;;;;;0.70;0.30;;;;;;;;;;1760128;80;26351;-47
2022/06/20 01:08:28;;;;;;;0.17;0.17;;;;;;;;;;1771181;79;26683;-47
2022/06/20 01:10:57;;;;;;;0.20;0.20;;;;;;;;;;1757217;80;26315;-50
2022/06/20 01:13:29;;;;;;;1.55;0.20;;;;;;;;;;1761714;80;26366;-51
2022/06/20 01:15:57;;;;;;;1.30;0.20;;;;;;;;;;1760489;80;26406;-46
2022/06/20 01:18:26;;;;;;;0.47;0.25;;;;;;;;;;1750157;80;26298;-46
2022/06/20 01:20:55;;;;;;;0.30;0.30;;;;;;;;;;1754188;80;26370;-48
2022/06/20 01:23:24;;;;;;;0.78;0.30;;;;;;;;;;1756830;80;26295;-50
2022/06/20 01:26:11;;;;;;;0.30;0.30;;;;;;;;;;1768423;79;26290;-48
2022/06/20 01:28:40;;;;;;;0.20;0.20;;;;;;;;;;1751704;80;26232;-46
2022/06/20 01:31:09;;;;;;;0.20;0.20;;;;;;;;;;1764162;80;26796;-48
2022/06/20 01:33:37;;;;;;;0.20;0.20;;;;;;;;;;1753521;80;26326;-46
2022/06/20 01:38:50;;;;;;;0.20;0.20;;;;;;;;;;1765625;80;26920;-47
2022/06/20 01:44:05;;;;;;;0.42;0.40;;;;;;;;;;1763417;80;26383;-46
2022/06/20 01:46:34;;;;;;;0.57;0.20;;;;;;;;;;1757378;80;26331;-48
2022/06/20 01:49:03;;;;;;;0.30;0.30;;;;;;;;;;1754339;79;26410;-49
2022/06/20 01:51:31;;;;;;;0.20;0.20;;;;;;;;;;1758865;81;26359;-51
2022/06/20 01:53:59;;;;;;;0.45;0.30;;;;;;;;;;1755624;80;26346;-47
2022/06/20 01:56:27;;;;;;;0.30;0.23;;;;;;;;;;1755332;80;26581;-49
2022/06/20 01:58:56;;;;;;;0.33;0.17;;;;;;;;;;1754905;80;26291;-48
2022/06/20 02:01:24;;;;;;;0.10;0.10;;;;;;;;;;1750458;79;26300;-47
2022/06/20 02:03:51;;;;;;;0.82;0.30;;;;;;;;;;1752042;80;26419;-47
2022/06/20 02:06:19;;;;;;;1.02;0.25;;;;;;;;;;1768402;79;26355;-50
2022/06/20 02:08:48;;;;;;;1.37;0.30;;;;;;;;;;1768663;79;26724;-45
2022/06/20 02:11:19;;;;;;;0.20;0.20;;;;;;;;;;1761231;80;26813;-50
2022/06/20 02:13:48;;;;;;;0.72;0.23;;;;;;;;;;1746130;81;26326;-50
2022/06/20 02:16:17;;;;;;;0.28;0.28;;;;;;;;;;1758203;80;26306;-47
2022/06/20 02:18:46;;;;;;;0.10;0.10;;;;;;;;;;1763748;80;26350;-50
2022/06/20 02:21:14;;;;;;;0.20;0.20;;;;;;;;;;1760607;80;26323;-50
2022/06/20 02:23:44;;;;;;;0.15;0.15;;;;;;;;;;1760344;80;26837;-50
2022/06/20 02:26:12;;;;;;;0.17;0.17;;;;;;;;;;1745749;80;26381;-50
2022/06/20 02:28:50;;;;;;;1.00;0.20;;;;;;;;;;1753152;80;26727;-47
2022/06/20 02:31:18;;;;;;;0.20;0.20;;;;;;;;;;1767616;80;26395;-47
2022/06/20 02:33:50;;;;;;;0.20;0.20;;;;;;;;;;1758952;80;26355;-47
2022/06/20 02:36:15;;;;;;;0.20;0.20;;;;;;;;;;1746504;80;26346;-48
2022/06/20 02:38:43;;;;;;;0.10;0.10;;;;;;;;;;1762617;80;27311;-47
2022/06/20 02:41:12;;;;;;;0.30;0.30;;;;;;;;;;1762873;80;26289;-51
2022/06/20 02:43:43;;;;;;;0.70;0.15;;;;;;;;;;1764599;80;26296;-49
2022/06/20 02:46:12;;;;;;;0.20;0.20;;;;;;;;;;1759622;80;26303;-50
2022/06/20 02:48:41;;;;;;;0.37;0.30;;;;;;;;;;1760701;80;26410;-52
2022/06/20 02:51:10;;;;;;;0.50;0.30;;;;;;;;;;1762336;80;26260;-48
2022/06/20 02:53:39;;;;;;;0.20;0.20;;;;;;;;;;1749587;80;26791;-46
2022/06/20 02:56:08;;;;;;;0.37;0.20;;;;;;;;;;1763956;80;26241;-48
2022/06/20 02:58:36;;;;;;;1.50;0.20;;;;;;;;;;1753410;80;26291;-47
2022/06/20 03:01:05;;;;;;;0.37;0.30;;;;;;;;;;1768099;80;26373;-49
2022/06/20 03:03:34;;;;;;;0.30;0.30;;;;;;;;;;1753159;80;26327;-54
2022/06/20 03:06:02;;;;;;;0.20;0.20;;;;;;;;;;1755803;80;26312;-46
2022/06/20 03:08:30;;;;;;;0.20;0.20;;;;;;;;;;1761585;79;26839;-49
2022/06/20 03:11:02;;;;;;;0.20;0.20;;;;;;;;;;1740918;80;26366;-45
2022/06/20 03:13:27;;;;;;;0.28;0.28;;;;;;;;;;1757801;80;26363;-46
2022/06/20 03:15:55;;;;;;;0.20;0.20;;;;;;;;;;1744186;80;26296;-47
2022/06/20 03:18:23;;;;;;;0.47;0.30;;;;;;;;;;1758969;80;26378;-47
2022/06/20 03:20:51;;;;;;;0.30;0.30;;;;;;;;;;1756778;80;26284;-46
2022/06/20 03:23:26;;;;;;;0.75;0.20;;;;;;;;;;1755029;80;26363;-49
2022/06/20 03:25:55;;;;;;;0.17;0.17;;;;;;;;;;1754676;80;26727;-47
2022/06/20 03:28:23;;;;;;;0.28;0.28;;;;;;;;;;1758385;80;26257;-50
2022/06/20 03:30:51;;;;;;;0.40;0.30;;;;;;;;;;1757195;80;26340;-52
2022/06/20 03:33:21;;;;;;;0.30;0.20;;;;;;;;;;1758456;80;26315;-48
2022/06/20 03:35:52;;;;;;;1.35;0.25;;;;;;;;;;1756820;80;26728;-49
2022/06/20 03:38:20;;;;;;;0.82;0.50;;;;;;;;;;1744046;80;26704;-46
2022/06/20 03:40:48;;;;;;;1.67;0.40;;;;;;;;;;1756326;80;26473;-51
2022/06/20 03:43:17;;;;;;;0.42;0.30;;;;;;;;;;1764459;80;26355;-46
2022/06/20 03:45:48;;;;;;;0.40;0.40;;;;;;;;;;1754075;80;26821;-46
2022/06/20 03:48:17;;;;;;;0.60;0.45;;;;;;;;;;1759889;80;26359;-50
2022/06/20 03:50:53;;;;;;;0.40;0.40;;;;;;;;;;1755725;80;26288;-46
2022/06/20 03:53:21;;;;;;;0.30;0.30;;;;;;;;;;1747997;80;26335;-46
2022/06/20 03:55:50;;;;;;;4.75;0.40;;;;;;;;;;1752861;80;26419;-49
2022/06/20 03:58:22;;;;;;;0.30;0.30;;;;;;;;;;1753010;80;26307;-48
2022/06/20 04:00:57;;;;;;;0.30;0.30;;;;;;;;;;1744131;80;26336;-48
2022/06/20 04:03:25;;;;;;;1.02;0.62;;;;;;;;;;1740931;80;26319;-51
2022/06/20 04:05:54;;;;;;;0.90;0.30;;;;;;;;;;1746532;80;26832;-51
2022/06/20 04:10:57;;;;;;;0.28;0.28;;;;;;;;;;1758052;79;26833;-47
2022/06/20 04:11:01;;;;;;;1.00;0.40;;;;;;;;;;1746046;80;27246;-47
2022/06/20 04:13:30;;;;;;;0.40;0.40;;;;;;;;;;1749883;80;26312;-51
2022/06/20 04:15:58;;;;;;;0.30;0.30;;;;;;;;;;1760887;80;26396;-49
2022/06/20 04:18:30;;;;;;;0.42;0.30;;;;;;;;;;1729947;80;26294;-48
2022/06/20 04:21:08;;;;;;;0.40;0.40;;;;;;;;;;1740625;80;26320;-48
2022/06/20 04:23:40;;;;;;;0.30;0.30;;;;;;;;;;1750193;82;26336;-50
2022/06/20 04:26:15;;;;;;;0.70;0.30;;;;;;;;;;1755605;80;26328;-51
2022/06/20 04:28:46;;;;;;;0.30;0.30;;;;;;;;;;1743143;80;26695;-49
2022/06/20 04:31:15;;;;;;;1.35;0.35;;;;;;;;;;1755484;80;26331;-53
2022/06/20 04:33:44;;;;;;;0.28;0.28;;;;;;;;;;1745832;80;26431;-49
2022/06/20 04:36:13;;;;;;;1.95;0.37;;;;;;;;;;1747255;80;26384;-50
2022/06/20 04:38:48;;;;;;;1.12;0.30;;;;;;;;;;1753837;79;26327;-53
2022/06/20 04:41:17;;;;;;;0.30;0.30;;;;;;;;;;1752972;80;26292;-54
2022/06/20 04:43:45;;;;;;;2.45;0.40;;;;;;;;;;1753066;80;26378;-48
2022/06/20 04:46:26;;;;;;;0.82;0.60;;;;;;;;;;1747961;80;26313;-48
2022/06/20 04:48:56;;;;;;;0.40;0.40;;;;;;;;;;1757157;80;26276;-50
2022/06/20 04:51:25;;;;;;;0.20;0.20;;;;;;;;;;1737915;80;26884;-44
2022/06/20 04:53:52;;;;;;;0.42;0.42;;;;;;;;;;1759070;80;26794;-47
2022/06/20 04:56:26;;;;;;;1.75;0.68;;;;;;;;;;1752991;80;26284;-49
2022/06/20 04:58:56;;;;;;;0.50;0.50;;;;;;;;;;1752643;80;26387;-48
2022/06/20 05:01:25;;;;;;;1.25;0.30;;;;;;;;;;1752195;80;26402;-49
2022/06/20 05:03:55;;;;;;;0.30;0.30;;;;;;;;;;1750532;80;26292;-51
2022/06/20 05:06:24;;;;;;;1.85;0.45;;;;;;;;;;1757887;79;26303;-51
2022/06/20 05:08:53;;;;;;;0.40;0.30;;;;;;;;;;1757528;79;26368;-50
2022/06/20 05:11:27;;;;;;;0.40;0.40;;;;;;;;;;1742274;80;26381;-48
2022/06/20 05:13:56;;;;;;;1.30;0.30;;;;;;;;;;1745144;80;26315;-48
2022/06/20 05:16:25;;;;;;;0.30;0.30;;;;;;;;;;1754924;80;26309;-49
2022/06/20 05:18:54;;;;;;;0.40;0.40;;;;;;;;;;1755036;80;26344;-47
2022/06/20 05:21:23;;;;;;;0.47;0.40;;;;;;;;;;1752549;80;26795;-50
2022/06/20 05:23:55;;;;;;;1.50;0.50;;;;;;;;;;1751373;80;26308;-48
2022/06/20 05:26:26;;;;;;;0.40;0.40;;;;;;;;;;1755495;80;26890;-51
2022/06/20 05:28:55;;;;;;;0.85;0.50;;;;;;;;;;1755950;80;26340;-47
2022/06/20 05:31:27;;;;;;;0.35;0.35;;;;;;;;;;1744965;80;26373;-53
2022/06/20 05:34:04;;;;;;;1.10;0.35;;;;;;;;;;1747928;80;26413;-48
2022/06/20 05:36:33;;;;;;;0.45;0.45;;;;;;;;;;1746278;80;26305;-52
2022/06/20 05:39:02;;;;;;;0.20;0.20;;;;;;;;;;1738207;79;26627;-47
2022/06/20 05:41:29;;;;;;;0.40;0.30;;;;;;;;;;1742154;80;26320;-47
2022/06/20 05:43:57;;;;;;;0.40;0.40;;;;;;;;;;1753892;80;26783;-47
2022/06/20 05:46:26;;;;;;;1.32;0.40;;;;;;;;;;1748832;80;26279;-48
2022/06/20 05:48:58;;;;;;;0.40;0.40;;;;;;;;;;1744228;80;26308;-49
2022/06/20 05:51:26;;;;;;;0.40;0.40;;;;;;;;;;1745657;80;26304;-52
2022/06/20 05:53:55;;;;;;;0.40;0.40;;;;;;;;;;1756090;80;26331;-48
2022/06/20 05:56:32;;;;;;;0.40;0.40;;;;;;;;;;1751161;80;26368;-48
2022/06/20 05:59:00;;;;;;;0.30;0.30;;;;;;;;;;1748236;80;26752;-49
2022/06/20 06:01:32;;;;;;;0.45;0.45;;;;;;;;;;1762538;80;26294;-52
2022/06/20 06:04:02;;;;;;;2.00;0.60;;;;;;;;;;1755863;80;26386;-52
2022/06/20 06:06:31;;;;;;;0.42;0.40;;;;;;;;;;1766335;79;26803;-55
2022/06/20 06:09:01;;;;;;;1.15;0.37;;;;;;;;;;1751508;80;26414;-51
2022/06/20 06:11:29;;;;;;;0.45;0.45;;;;;;;;;;1750714;80;26332;-50
2022/06/20 06:14:01;;;;;;;1.20;0.40;;;;;;;;;;1753250;80;26298;-48
2022/06/20 06:16:48;;;;;;;0.85;0.50;;;;;;;;;;1734163;80;26327;-49
2022/06/20 06:19:33;;;;;;;0.82;0.50;;;;;;;;;;1745294;80;26684;-56
2022/06/20 06:22:02;;;;;;;0.42;0.42;;;;;;;;;;1752805;80;26330;-53
2022/06/20 06:24:30;;;;;;;2.08;0.60;;;;;;;;;;1753142;80;26779;-49
2022/06/20 06:26:59;;;;;;;0.85;0.50;;;;;;;;;;1745587;81;26530;-48
2022/06/20 06:29:28;;;;;;;0.47;0.47;;;;;;;;;;1739780;80;26326;-48
2022/06/20 06:31:57;;;;;;;0.70;0.70;;;;;;;;;;1740010;80;26297;-47
2022/06/20 06:34:25;;;;;;;1.45;0.53;;;;;;;;;;1753834;80;26257;-49
2022/06/20 06:36:57;;;;;;;0.70;0.62;;;;;;;;;;1755978;80;26352;-49
2022/06/20 06:39:29;;;;;;;0.57;0.57;;;;;;;;;;1742339;80;26314;-50
2022/06/20 06:41:58;;;;;;;1.27;0.50;;;;;;;;;;1752809;80;26808;-52
2022/06/20 06:44:29;;;;;;;0.62;0.62;;;;;;;;;;1752935;80;26304;-49
2022/06/20 06:46:57;;;;;;;0.50;0.50;;;;;;;;;;1760793;80;26274;-49
2022/06/20 06:49:26;;;;;;;0.57;0.57;;;;;;;;;;1753012;80;26996;-49
2022/06/20 06:51:55;;;;;;;0.50;0.50;;;;;;;;;;1756002;80;26790;-49
2022/06/20 06:54:24;;;;;;;0.47;0.47;;;;;;;;;;1755101;80;26838;-51
2022/06/20 06:56:56;;;;;;;1.17;0.75;;;;;;;;;;1755495;80;26376;-53
2022/06/20 06:59:24;;;;;;;1.25;0.75;;;;;;;;;;1754483;80;27572;-55
2022/06/20 07:01:53;;;;;;;0.72;0.72;;;;;;;;;;1753201;80;26366;-49
2022/06/20 07:04:22;;;;;;;0.55;0.55;;;;;;;;;;1736940;80;26700;-51
2022/06/20 07:06:57;;;;;;;0.70;0.70;;;;;;;;;;1757464;79;26388;-52
2022/06/20 07:09:35;;;;;;;0.50;0.50;;;;;;;;;;1747206;80;26316;-50
2022/06/20 07:12:10;;;;;;;0.50;0.50;;;;;;;;;;1752976;80;26288;-48
2022/06/20 07:14:39;;;;;;;0.55;0.55;;;;;;;;;;1748451;80;26288;-49
2022/06/20 07:17:26;;;;;;;0.70;0.70;;;;;;;;;;1751713;80;26378;-54
2022/06/20 07:19:54;;;;;;;0.50;0.50;;;;;;;;;;1751272;80;26237;-53
2022/06/20 07:22:23;;;;;;;0.60;0.60;;;;;;;;;;1752803;80;26303;-51
2022/06/20 07:24:51;;;;;;;0.50;0.50;;;;;;;;;;1741079;80;26820;-52
2022/06/20 07:27:20;;;;;;;0.60;0.60;;;;;;;;;;1753778;80;26398;-51
2022/06/20 07:29:49;;;;;;;0.70;0.70;;;;;;;;;;1756988;80;26889;-49
2022/06/20 07:32:20;;;;;;;0.70;0.70;;;;;;;;;;1754337;80;26834;-51
2022/06/20 07:34:49;;;;;;;0.70;0.70;;;;;;;;;;1743497;80;26664;-54
2022/06/20 07:37:18;;;;;;;0.72;0.70;;;;;;;;;;1750475;80;26358;-58
2022/06/20 07:39:51;;;;;;;1.12;0.80;;;;;;;;;;1750080;80;26445;-57
2022/06/20 07:42:24;;;;;;;0.70;0.70;;;;;;;;;;1748317;80;26278;-57
2022/06/20 07:44:53;;;;;;;1.65;0.70;;;;;;;;;;1749606;80;26808;-51
2022/06/20 07:47:23;;;;;;;0.80;0.80;;;;;;;;;;1751311;80;26582;-55
2022/06/20 07:49:52;;;;;;;0.70;0.70;;;;;;;;;;1751952;80;26917;-52
2022/06/20 07:52:24;;;;;;;0.70;0.70;;;;;;;;;;1753381;80;26674;-48
2022/06/20 07:54:53;;;;;;;0.70;0.70;;;;;;;;;;1733540;80;26773;-50
2022/06/20 07:57:34;;;;;;;1.32;0.70;;;;;;;;;;1738533;80;26335;-47
2022/06/20 08:00:06;;;;;;;0.72;0.72;;;;;;;;;;1743839;80;26308;-55
2022/06/20 08:02:34;;;;;;;0.72;0.72;;;;;;;;;;1750460;80;26807;-47
2022/06/20 08:05:03;;;;;;;0.60;0.60;;;;;;;;;;1752269;80;28267;-51
2022/06/20 08:07:40;;;;;;;0.70;0.70;;;;;;;;;;1754745;79;26335;-48
2022/06/20 08:10:10;;;;;;;0.50;0.50;;;;;;;;;;1749354;80;26368;-46
2022/06/20 08:12:41;;;;;;;0.50;0.50;;;;;;;;;;1751664;80;26387;-47
2022/06/20 08:15:13;;;;;;;0.60;0.60;;;;;;;;;;1727295;80;26367;-54
2022/06/20 08:17:40;;;;;;;0.62;0.62;;;;;;;;;;1757495;79;26304;-51
2022/06/20 08:20:08;;;;;;;0.68;0.68;;;;;;;;;;1765331;80;26315;-48
2022/06/20 08:22:37;;;;;;;0.60;0.60;;;;;;;;;;1765454;80;26303;-47
2022/06/20 08:25:09;;;;;;;0.70;0.70;;;;;;;;;;1747495;80;26622;-49
2022/06/20 08:27:37;;;;;;;0.60;0.60;;;;;;;;;;1741517;80;26295;-49
2022/06/20 08:30:15;;;;;;;0.50;0.50;;;;;;;;;;1753164;80;26795;-50
2022/06/20 08:32:50;;;;;;;0.70;0.70;;;;;;;;;;1752920;80;26297;-48
2022/06/20 08:35:31;;;;;;;0.70;0.70;;;;;;;;;;1765613;80;26266;-47
2022/06/20 08:38:00;;;;;;;0.70;0.70;;;;;;;;;;1733718;80;26724;-46
2022/06/20 08:40:35;;;;;;;0.60;0.60;;;;;;;;;;1751603;80;26724;-49
2022/06/20 08:43:09;;;;;;;0.60;0.60;;;;;;;;;;1752615;80;26367;-49
2022/06/20 08:45:47;;;;;;;0.80;0.80;;;;;;;;;;1752402;80;26386;-48
2022/06/20 08:48:16;;;;;;;0.70;0.70;;;;;;;;;;1749159;80;26367;-49
2022/06/20 08:50:48;;;;;;;0.70;0.70;;;;;;;;;;1752117;80;26398;-50
2022/06/20 08:53:33;;;;;;;0.72;0.72;;;;;;;;;;1751628;80;26312;-48
2022/06/20 08:56:21;;;;;;;0.70;0.70;;;;;;;;;;1748623;80;26351;-53
2022/06/20 08:59:06;;;;;;;0.70;0.70;;;;;;;;;;1748213;80;26658;-51
2022/06/20 09:01:38;;;;;;;0.90;0.90;;;;;;;;;;1751157;80;26438;-49
2022/06/20 09:04:24;;;;;;;0.78;0.78;;;;;;;;;;1748446;80;26840;-45
2022/06/20 09:06:55;;;;;;;0.75;0.75;;;;;;;;;;1760443;79;26836;-47
2022/06/20 09:09:24;;;;;;;0.70;0.70;;;;;;;;;;1748591;80;26320;-50
2022/06/20 09:11:56;;;;;;;0.80;0.80;;;;;;;;;;1749529;80;26300;-47
2022/06/20 09:14:37;;;;;;;0.80;0.80;;;;;;;;;;1751088;80;26970;-51
2022/06/20 09:17:21;;;;;;;0.70;0.70;;;;;;;;;;1749080;81;26760;-50
2022/06/20 09:19:55;;;;;;;0.80;0.80;;;;;;;;;;1749802;80;26292;-47
2022/06/20 09:22:30;;;;;;;0.88;0.88;;;;;;;;;;1751582;80;26304;-45
2022/06/20 09:24:59;;;;;;;0.80;0.80;;;;;;;;;;1750414;80;26304;-48
2022/06/20 09:27:31;;;;;;;0.90;0.90;;;;;;;;;;1754509;80;26425;-52
2022/06/20 09:30:05;;;;;;;0.78;0.78;;;;;;;;;;1738283;80;26818;-44
2022/06/20 09:32:50;;;;;;;1.00;1.00;;;;;;;;;;1747658;80;26354;-46
2022/06/20 09:35:19;;;;;;;0.90;0.90;;;;;;;;;;1746691;80;26330;-50
2022/06/20 09:38:04;;;;;;;0.90;0.90;;;;;;;;;;1754737;80;26303;-51
2022/06/20 09:40:45;;;;;;;0.95;0.95;;;;;;;;;;1743452;80;26797;-53
2022/06/20 09:43:17;;;;;;;1.10;1.10;;;;;;;;;;1752740;80;25722;-49
2022/06/20 09:46:01;;;;;;;1.00;1.00;;;;;;;;;;1756881;80;26297;-46
2022/06/20 09:48:46;;;;;;;1.00;1.00;;;;;;;;;;1760047;80;26362;-50
2022/06/20 09:51:15;;;;;;;1.02;1.02;;;;;;;;;;1754177;80;26358;-45
2022/06/20 09:53:50;;;;;;;0.90;0.90;;;;;;;;;;1754232;80;26329;-51
2022/06/20 09:56:24;;;;;;;0.90;0.90;;;;;;;;;;1738556;82;26358;-50
2022/06/20 09:58:53;;;;;;;0.95;0.95;;;;;;;;;;1736073;80;26382;-50
2022/06/20 10:01:25;;;;;;;0.98;0.98;;;;;;;;;;1750365;80;26857;-51
2022/06/20 10:03:56;;;;;;;1.00;1.00;;;;;;;;;;1749509;80;26598;-48
2022/06/20 10:06:25;;;;;;;0.80;0.80;;;;;;;;;;1751433;80;26748;-53
2022/06/20 10:09:10;;;;;;;1.07;1.07;;;;;;;;;;1749290;80;26937;-47
2022/06/20 10:11:51;;;;;;;1.00;1.00;;;;;;;;;;1753467;80;26375;-48
2022/06/20 10:14:37;;;;;;;0.93;0.93;;;;;;;;;;1731161;80;26322;-46
2022/06/20 10:17:12;;;;;;;0.90;0.90;;;;;;;;;;1733569;80;26390;-47
2022/06/20 10:19:41;;;;;;;1.20;1.00;;;;;;;;;;1742379;80;26382;-47
2022/06/20 10:22:10;;;;;;;0.95;0.95;;;;;;;;;;1744079;80;26248;-46
2022/06/20 10:24:54;;;;;;;0.90;0.90;;;;;;;;;;1750458;80;26378;-53
2022/06/20 10:27:23;;;;;;;0.95;0.95;;;;;;;;;;1737182;80;27313;-46
2022/06/20 10:29:52;;;;;;;0.90;0.90;;;;;;;;;;1744837;80;26300;-49
2022/06/20 10:32:23;;;;;;;0.80;0.80;;;;;;;;;;1757956;80;26253;-49
2022/06/20 10:34:57;;;;;;;1.10;1.10;;;;;;;;;;1754776;80;26346;-48
2022/06/20 10:37:32;;;;;;;0.85;0.85;;;;;;;;;;1763610;80;26292;-52
2022/06/20 10:39:59;;;;;;;0.90;0.90;;;;;;;;;;1754491;80;26736;-48
2022/06/20 10:42:40;;;;;;;0.90;0.90;;;;;;;;;;1734189;82;26285;-50
2022/06/20 10:45:26;;;;;;;0.98;0.98;;;;;;;;;;1738036;80;26374;-52
2022/06/20 10:47:57;;;;;;;0.80;0.80;;;;;;;;;;1746351;80;26390;-52
2022/06/20 10:50:27;;;;;;;0.98;0.98;;;;;;;;;;1752401;80;26363;-48
2022/06/20 10:53:05;;;;;;;1.00;1.00;;;;;;;;;;1751964;80;26288;-49
2022/06/20 10:55:36;;;;;;;0.90;0.90;;;;;;;;;;1748110;80;26818;-50
2022/06/20 10:58:17;;;;;;;0.90;0.90;;;;;;;;;;1734921;80;26363;-49
2022/06/20 11:00:49;;;;;;;1.00;1.00;;;;;;;;;;1769097;80;26308;-51
2022/06/20 11:03:19;;;;;;;0.80;0.80;;;;;;;;;;1764950;80;26304;-54
2022/06/20 11:05:47;;;;;;;0.90;0.90;;;;;;;;;;1766184;79;26343;-52
2022/06/20 11:08:16;;;;;;;0.90;0.90;;;;;;;;;;1773391;79;26350;-50
2022/06/20 11:10:45;;;;;;;1.00;1.00;;;;;;;;;;1763247;80;26294;-51
2022/06/20 11:13:14;;;;;;;1.00;1.00;;;;;;;;;;1758706;79;26316;-52
2022/06/20 11:16:00;;;;;;;1.00;1.00;;;;;;;;;;1728581;82;26321;-53
2022/06/20 11:18:34;;;;;;;0.98;0.98;;;;;;;;;;1739242;80;26898;-48
2022/06/20 11:21:12;;;;;;;1.17;1.17;;;;;;;;;;1757705;80;26335;-47
2022/06/20 11:23:59;;;;;;;1.02;1.02;;;;;;;;;;1751678;80;26426;-44
2022/06/20 11:26:40;;;;;;;0.95;0.95;;;;;;;;;;1748188;80;26303;-46
2022/06/20 11:29:09;;;;;;;1.10;1.10;;;;;;;;;;1695373;82;26756;-48
2022/06/20 11:31:44;;;;;;;0.90;0.90;;;;;;;;;;1749922;80;26825;-47
2022/06/20 11:34:13;;;;;;;0.88;0.88;;;;;;;;;;1752229;80;26312;-49
2022/06/20 11:36:42;;;;;;;0.75;0.75;;;;;;;;;;1755291;80;26301;-51
2022/06/20 11:39:11;;;;;;;0.90;0.90;;;;;;;;;;1753063;80;27450;-49
2022/06/20 11:41:40;;;;;;;1.65;0.95;;;;;;;;;;1742777;80;26305;-47
2022/06/20 11:44:11;;;;;;;1.10;1.10;;;;;;;;;;1708154;80;26307;-44
2022/06/20 11:46:43;;;;;;;0.80;0.80;;;;;;;;;;1754442;80;26685;-48
2022/06/20 11:49:27;;;;;;;0.90;0.90;;;;;;;;;;1772562;80;26741;-48
2022/06/20 11:51:56;;;;;;;1.00;1.00;;;;;;;;;;1750385;80;26365;-59
2022/06/20 11:54:41;;;;;;;0.90;0.90;;;;;;;;;;1739604;80;26307;-54
2022/06/20 11:57:19;;;;;;;1.00;1.00;;;;;;;;;;1729500;80;26856;-55
2022/06/20 11:59:52;;;;;;;0.82;0.82;;;;;;;;;;1738063;80;26850;-51
2022/06/20 12:02:21;;;;;;;0.80;0.80;;;;;;;;;;1748477;80;26673;-52
2022/06/20 12:04:56;;;;;;;1.00;1.00;;;;;;;;;;1748351;80;26302;-51
2022/06/20 12:07:31;;;;;;;0.88;0.88;;;;;;;;;;1749266;79;26357;-53
2022/06/20 12:09:59;;;;;;;1.00;1.00;;;;;;;;;;1748413;80;26352;-51
2022/06/20 12:12:46;;;;;;;0.80;0.80;;;;;;;;;;1763010;80;26296;-55
2022/06/20 12:15:27;;;;;;;0.90;0.90;;;;;;;;;;1752199;80;26303;-54
2022/06/20 12:18:08;;;;;;;0.80;0.80;;;;;;;;;;1753874;80;26286;-48
2022/06/20 12:23:28;;;;;;;0.85;0.85;;;;;;;;;;1747998;80;26339;-52
2022/06/20 12:25:54;;;;;;;0.70;0.70;;;;;;;;;;1740872;82;26335;-51
2022/06/20 12:28:23;;;;;;;0.80;0.80;;;;;;;;;;1747760;80;26441;-54
2022/06/20 12:31:01;;;;;;;0.78;0.78;;;;;;;;;;1741517;80;26379;-52
2022/06/20 12:33:29;;;;;;;0.80;0.80;;;;;;;;;;1750664;80;26331;-54
2022/06/20 12:35:58;;;;;;;0.88;0.88;;;;;;;;;;1753009;80;26790;-50
2022/06/20 12:38:29;;;;;;;0.80;0.80;;;;;;;;;;1751463;80;26763;-57
2022/06/20 12:41:01;;;;;;;0.78;0.78;;;;;;;;;;1748206;80;26869;-48
2022/06/20 12:43:30;;;;;;;0.88;0.88;;;;;;;;;;1740131;80;26315;-47
2022/06/20 12:46:08;;;;;;;0.70;0.70;;;;;;;;;;1748024;80;26274;-54
2022/06/20 12:48:40;;;;;;;0.80;0.80;;;;;;;;;;1763852;80;27352;-51
2022/06/20 12:51:14;;;;;;;0.80;0.80;;;;;;;;;;1737170;80;26365;-49
2022/06/20 12:53:49;;;;;;;0.90;0.90;;;;;;;;;;1749089;80;26300;-53
2022/06/20 12:56:18;;;;;;;0.70;0.70;;;;;;;;;;1752009;80;26410;-57
2022/06/20 12:58:53;;;;;;;0.80;0.80;;;;;;;;;;1757424;80;26320;-52
2022/06/20 13:01:28;;;;;;;0.80;0.80;;;;;;;;;;1749922;80;26327;-56
2022/06/20 13:04:15;;;;;;;0.85;0.85;;;;;;;;;;1754496;80;26355;-57
2022/06/20 13:06:55;;;;;;;0.78;0.78;;;;;;;;;;1760392;79;26384;-52
2022/06/20 13:09:27;;;;;;;0.80;0.80;;;;;;;;;;1753615;80;26360;-51
2022/06/20 13:11:59;;;;;;;0.70;0.70;;;;;;;;;;1766968;80;26241;-54
2022/06/20 13:14:28;;;;;;;0.80;0.80;;;;;;;;;;1753108;80;26308;-51
2022/06/20 13:16:59;;;;;;;0.90;0.90;;;;;;;;;;1750794;80;26645;-51
2022/06/20 13:19:40;;;;;;;0.80;0.80;;;;;;;;;;1751594;80;26296;-57
2022/06/20 13:22:16;;;;;;;0.80;0.80;;;;;;;;;;1754634;80;26752;-48
2022/06/20 13:24:45;;;;;;;0.80;0.80;;;;;;;;;;1742269;80;26333;-51
2022/06/20 13:27:19;;;;;;;1.02;0.90;;;;;;;;;;1737212;80;26393;-49
2022/06/20 13:29:54;;;;;;;0.70;0.70;;;;;;;;;;1742316;80;26611;-48
2022/06/20 13:32:23;;;;;;;0.70;0.70;;;;;;;;;;1741566;80;26320;-50
2022/06/20 13:34:58;;;;;;;0.72;0.72;;;;;;;;;;1744705;81;26755;-47
2022/06/20 13:37:27;;;;;;;0.60;0.60;;;;;;;;;;1749201;80;26692;-46
2022/06/20 13:39:57;;;;;;;0.80;0.80;;;;;;;;;;1737219;80;26722;-52
2022/06/20 13:42:28;;;;;;;0.80;0.80;;;;;;;;;;1752020;80;26324;-52
2022/06/20 13:45:00;;;;;;;0.80;0.80;;;;;;;;;;1740225;80;26774;-49
2022/06/20 13:47:32;;;;;;;0.80;0.80;;;;;;;;;;1748244;80;26901;-54
2022/06/20 13:50:17;;;;;;;0.70;0.70;;;;;;;;;;1750977;80;26324;-50
2022/06/20 13:52:49;;;;;;;0.90;0.90;;;;;;;;;;1751943;80;26371;-50
2022/06/20 13:55:26;;;;;;;0.65;0.65;;;;;;;;;;1754442;80;26303;-54
2022/06/20 13:58:04;;;;;;;0.80;0.80;;;;;;;;;;1750144;80;26320;-51
2022/06/20 14:00:32;;;;;;;0.70;0.70;;;;;;;;;;1751794;80;26378;-55
2022/06/20 14:03:07;;;;;;;0.70;0.70;;;;;;;;;;1752596;80;26355;-55
2022/06/20 14:05:35;;;;;;;0.70;0.70;;;;;;;;;;1752004;80;26363;-56
2022/06/20 14:08:04;;;;;;;0.70;0.70;;;;;;;;;;1756679;79;26327;-57
2022/06/20 14:10:33;;;;;;;0.62;0.62;;;;;;;;;;1755571;80;26905;-59
2022/06/20 14:13:01;;;;;;;0.60;0.60;;;;;;;;;;1753147;80;26752;-58
2022/06/20 14:15:36;;;;;;;0.57;0.57;;;;;;;;;;1752264;80;26285;-58
2022/06/20 14:18:05;;;;;;;0.70;0.70;;;;;;;;;;1752293;80;26798;-56
2022/06/20 14:20:36;;;;;;;0.70;0.70;;;;;;;;;;1742584;80;26755;-54
2022/06/20 14:23:04;;;;;;;0.70;0.70;;;;;;;;;;1752810;80;26696;-50
2022/06/20 14:25:39;;;;;;;0.65;0.65;;;;;;;;;;1753094;82;26340;-56
2022/06/20 14:28:08;;;;;;;0.68;0.68;;;;;;;;;;1748993;80;26806;-49
2022/06/20 14:30:36;;;;;;;0.70;0.70;;;;;;;;;;1753627;80;26676;-56
2022/06/20 14:33:14;;;;;;;0.60;0.60;;;;;;;;;;1752904;80;26315;-56
2022/06/20 14:35:43;;;;;;;0.50;0.50;;;;;;;;;;1753703;79;26347;-55
2022/06/20 14:38:18;;;;;;;0.50;0.50;;;;;;;;;;1754701;80;26249;-55
2022/06/20 14:40:50;;;;;;;0.70;0.70;;;;;;;;;;1747101;80;26350;-54
2022/06/20 14:43:18;;;;;;;0.57;0.57;;;;;;;;;;1753049;80;26284;-56
2022/06/20 14:45:56;;;;;;;0.80;0.80;;;;;;;;;;1753008;80;26308;-58
2022/06/20 14:48:28;;;;;;;0.70;0.70;;;;;;;;;;1752152;80;26761;-55
2022/06/20 14:50:56;;;;;;;0.60;0.60;;;;;;;;;;1753568;80;26312;-52
2022/06/20 14:53:25;;;;;;;0.60;0.60;;;;;;;;;;1734624;80;26358;-52
2022/06/20 14:55:54;;;;;;;0.80;0.80;;;;;;;;;;1752197;80;26352;-54
2022/06/20 14:58:23;;;;;;;0.60;0.60;;;;;;;;;;1739381;80;26381;-55
2022/06/20 15:00:52;;;;;;;0.70;0.70;;;;;;;;;;1746201;80;26497;-55
2022/06/20 15:03:21;;;;;;;0.78;0.78;;;;;;;;;;1742565;81;26332;-50
2022/06/20 15:06:06;;;;;;;0.98;0.70;;;;;;;;;;1748551;80;26833;-55
2022/06/20 15:08:41;;;;;;;0.70;0.70;;;;;;;;;;1747645;80;26442;-52
2022/06/20 15:11:16;;;;;;;0.53;0.53;;;;;;;;;;1752766;80;26340;-54
2022/06/20 15:13:48;;;;;;;0.60;0.60;;;;;;;;;;1748398;80;26328;-56
2022/06/20 15:16:17;;;;;;;0.60;0.60;;;;;;;;;;1754096;80;26300;-54
2022/06/20 15:18:45;;;;;;;0.60;0.60;;;;;;;;;;1751542;80;26309;-52